Airport View

Enter AWOS ICAO identifier for current METAR.

ex. KFNL

KTME 261255Z AUTO 12007KT 9SM CLR 25/24 A3009 RMK AO2

26 Jun 2019 12:56

Frequency: 119.525

Phone: 281-945-5451

Other Area AWOS: KIWS - KSGR - KDWH - KELA

TAF KSGR 261122Z 2612/2712 13003KT P6SM BKN130 FM261300 12006KT P6SM FEW030 OVC250 FM261800 13008KT P6SM VCTS SCT035CB BKN130 FM262200 12007KT P6SM FEW040 BKN120 FM271000 12003KT P6SM BKN025